Pagina principale
METAR-TAF:

METAR-TAF

Aeroporti :

Ali Al Salem Air Base, Kuwait

latitudine: 29-20-48N, longitudine: 47-31-14E, altezza: 144 m

Osservazione

Il bollettino è stato emesso 54 minuti fa, alle 20:58 UTC
Vento calmo
Temperature 22°C
Umidità 16%
Pressione 1016 hPa
Visibilità 10 km o più
Cielo sereno

METAR: OKAS 292058Z 00000KT 9999 CLR 22/M05 A3001 RMK AO2A SLP158 T02191051 58004 $

Ora: 00:52 (21:52 UTC)

Previsione

Il bollettino è stato emesso 6 ore e 52 minuti fa, alle 15:00 UTC
Previsione valida dal 29 alle 15 UTC al 30 alle 21 UTC
Vento 6 kt da direzioni variabili
Visibilità 10 km o più
Cielo sereno

TAF: OKAS 291500Z 2915/3021 VRB06KT 9999 SKC QNH2996INS TX33/3012Z TN16/3003Z

Osservazioni e previsioni meteorologiche di più di 4000 aeroporti (messaggi METAR e TAF).

Le stazioni disponibili sono rappresentate dai dischi gialli e rossi sulla carta.

Puntare il mouse per vedere il nome della stazione.

Clicca sopra per visualizzare le osservazioni e previsioni meteorologiche.

Per cambiare la mappa : fare clic sui pulsanti verdi con una croce nera per ingrandire, il pulsante verde con un trattino per diminuire, o sulla freccia verde per le mappe adiacenti.


METAR-TAF: